Time;durP1;ratioP1;P1;durP2;ratioP2;P2;SDS_P1;SDS_P2;PMS_P1;PMS_P2;Temp;Humidity;BMP_temperature;BMP_pressure;BME280_temperature;BME280_humidity;BME280_pressure;Samples;Min_cycle;Max_cycle;Signal;HPM_P1;HPM_P2
2022/08/03 00:01:23;;;;;;;;;;;;;;;;;;5008756;28;20051;-56
2022/08/03 00:03:49;;;;;;;;;;;;;;;;;;5008819;28;19909;-56
2022/08/03 00:06:15;;;;;;;;;;;;;;;;;;5008464;28;19909;-56
2022/08/03 00:08:41;;;;;;;;;;;;;;;;;;5008565;28;20418;-56
2022/08/03 00:11:08;;;;;;;;;;;;;;;;;;5008200;28;19953;-56
2022/08/03 00:13:34;;;;;;;;;;;;;;;;;;5009157;28;19915;-56
2022/08/03 00:16:00;;;;;;;;;;;;;;;;;;5007414;28;19909;-57
2022/08/03 00:18:25;;;;;;;;;;;;;;;;;;5008131;28;19917;-56
2022/08/03 00:20:51;;;;;;;;;;;;;;;;;;5007936;28;19913;-55
2022/08/03 00:23:18;;;;;;;;;;;;;;;;;;5008364;28;19913;-56
2022/08/03 00:25:45;;;;;;;;;;;;;;;;;;5008017;28;19909;-56
2022/08/03 00:28:11;;;;;;;;;;;;;;;;;;5007726;28;19921;-56
2022/08/03 00:30:37;;;;;;;;;;;;;;;;;;5008091;28;19920;-56
2022/08/03 00:33:03;;;;;;;;;;;;;;;;;;5008448;28;20357;-55
2022/08/03 00:35:30;;;;;;;;;;;;;;;;;;5008274;28;19956;-56
2022/08/03 00:37:56;;;;;;;;;;;;;;;;;;5007523;28;20019;-56
2022/08/03 00:40:22;;;;;;;;;;;;;;;;;;5007725;28;19914;-57
2022/08/03 00:42:49;;;;;;;;;;;;;;;;;;5008040;28;19913;-57
2022/08/03 00:45:15;;;;;;;;;;;;;;;;;;5008048;28;20371;-56
2022/08/03 00:47:41;;;;;;;;;;;;;;;;;;5007934;28;19920;-56
2022/08/03 00:50:07;;;;;;;;;;;;;;;;;;5007383;28;19976;-56
2022/08/03 00:52:34;;;;;;;;;;;;;;;;;;5008118;28;19913;-57
2022/08/03 00:55:00;;;;;;;;;;;;;;;;;;5007754;28;20325;-56
2022/08/03 00:57:26;;;;;;;;;;;;;;;;;;5007534;28;20016;-55
2022/08/03 01:04:57;;;;;;;;;;;;;;;;;;4965988;28;20028;-43
2022/08/03 01:07:23;;;;;;;;;;;;;;;;;;4968498;28;19997;-42
2022/08/03 01:09:49;;;;;;;;;;;;;;;;;;4968146;28;20376;-42
2022/08/03 01:12:16;;;;;;;;;;;;;;;;;;4968346;28;19910;-43
2022/08/03 01:14:42;;;;;;;;;;;;;;;;;;4968189;28;19965;-43
2022/08/03 01:17:08;;;;;;;;;;;;;;;;;;4967888;28;20017;-44
2022/08/03 01:19:33;;;;;;;;;;;;;;;;;;4968384;28;19916;-43
2022/08/03 01:21:59;;;;;;;;;;;;;;;;;;4967302;28;19910;-44
2022/08/03 01:24:25;;;;;;;;;;;;;;;;;;4968113;28;19910;-43
2022/08/03 01:26:52;;;;;;;;;;;;;;;;;;4967887;28;19961;-43
2022/08/03 01:29:18;;;;;;;;;;;;;;;;;;4967944;28;19916;-44
2022/08/03 01:31:44;;;;;;;;;;;;;;;;;;4967934;28;19910;-44
2022/08/03 01:34:10;;;;;;;;;;;;;;;;;;4967577;28;19913;-43
2022/08/03 01:36:36;;;;;;;;;;;;;;;;;;4968233;28;19990;-44
2022/08/03 01:39:03;;;;;;;;;;;;;;;;;;4968001;28;19918;-43
2022/08/03 01:41:29;;;;;;;;;;;;;;;;;;4968318;28;20426;-44
2022/08/03 01:43:55;;;;;;;;;;;;;;;;;;4967583;28;19946;-44
2022/08/03 01:46:21;;;;;;;;;;;;;;;;;;4967615;28;19920;-44
2022/08/03 01:48:48;;;;;;;;;;;;;;;;;;4967583;28;19960;-43
2022/08/03 01:51:14;;;;;;;;;;;;;;;;;;4967747;28;20350;-43
2022/08/03 01:53:43;;;;;;;;;;;;;;;;;;4967575;28;19997;-43
2022/08/03 01:56:09;;;;;;;;;;;;;;;;;;4967113;28;20389;-44
2022/08/03 01:58:34;;;;;;;;;;;;;;;;;;4967565;28;19922;-43
2022/08/03 02:01:00;;;;;;;;;;;;;;;;;;4967914;28;19990;-44
2022/08/03 02:03:26;;;;;;;;;;;;;;;;;;4967555;28;20685;-45
2022/08/03 02:05:52;;;;;;;;;;;;;;;;;;4967056;28;19941;-43
2022/08/03 02:08:18;;;;;;;;;;;;;;;;;;4967440;28;20370;-44
2022/08/03 02:10:45;;;;;;;;;;;;;;;;;;4967443;28;19935;-43
2022/08/03 02:13:10;;;;;;;;;;;;;;;;;;4967270;28;19914;-43
2022/08/03 02:15:36;;;;;;;;;;;;;;;;;;4966385;28;20312;-45
2022/08/03 02:18:02;;;;;;;;;;;;;;;;;;4967108;28;19940;-44
2022/08/03 02:20:29;;;;;;;;;;;;;;;;;;4967286;28;19910;-43
2022/08/03 02:22:54;;;;;;;;;;;;;;;;;;4966718;28;19921;-43
2022/08/03 02:25:22;;;;;;;;;;;;;;;;;;4967211;28;19914;-45
2022/08/03 02:27:49;;;;;;;;;;;;;;;;;;4967123;28;19938;-43
2022/08/03 02:30:15;;;;;;;;;;;;;;;;;;4967165;28;20533;-45
2022/08/03 02:32:41;;;;;;;;;;;;;;;;;;4967238;28;20082;-43
2022/08/03 02:35:07;;;;;;;;;;;;;;;;;;4966538;28;20725;-43
2022/08/03 02:37:33;;;;;;;;;;;;;;;;;;4967425;28;19972;-43
2022/08/03 02:39:58;;;;;;;;;;;;;;;;;;4966594;28;19910;-44
2022/08/03 02:42:24;;;;;;;;;;;;;;;;;;4966838;28;19914;-44
2022/08/03 02:44:51;;;;;;;;;;;;;;;;;;4966426;28;20324;-45
2022/08/03 02:47:19;;;;;;;;;;;;;;;;;;4967038;28;20385;-45
2022/08/03 02:49:45;;;;;;;;;;;;;;;;;;4966644;28;19910;-43
2022/08/03 02:52:11;;;;;;;;;;;;;;;;;;4966416;28;19914;-45
2022/08/03 02:54:37;;;;;;;;;;;;;;;;;;4966835;28;19920;-43
2022/08/03 02:57:04;;;;;;;;;;;;;;;;;;4965016;28;19915;-43
2022/08/03 02:59:30;;;;;;;;;;;;;;;;;;4967508;28;20403;-44
2022/08/03 03:01:56;;;;;;;;;;;;;;;;;;4964849;28;19953;-43
2022/08/03 03:04:22;;;;;;;;;;;;;;;;;;4966201;28;19988;-43
2022/08/03 03:06:48;;;;;;;;;;;;;;;;;;4966244;28;20302;-45
2022/08/03 03:09:13;;;;;;;;;;;;;;;;;;4966208;28;19934;-44
2022/08/03 03:11:39;;;;;;;;;;;;;;;;;;4966225;28;19916;-43
2022/08/03 03:14:05;;;;;;;;;;;;;;;;;;4965904;28;20412;-43
2022/08/03 03:16:32;;;;;;;;;;;;;;;;;;4967065;28;19921;-44
2022/08/03 03:18:58;;;;;;;;;;;;;;;;;;4966400;28;20001;-44
2022/08/03 03:21:24;;;;;;;;;;;;;;;;;;4965975;28;19989;-43
2022/08/03 03:23:50;;;;;;;;;;;;;;;;;;4965916;28;19917;-44
2022/08/03 03:26:16;;;;;;;;;;;;;;;;;;4966653;28;19910;-43
2022/08/03 03:28:42;;;;;;;;;;;;;;;;;;4969134;28;20767;-44
2022/08/03 03:31:07;;;;;;;;;;;;;;;;;;4970084;28;19918;-44
2022/08/03 03:33:33;;;;;;;;;;;;;;;;;;4969735;28;19957;-43
2022/08/03 03:35:59;;;;;;;;;;;;;;;;;;4970336;28;20407;-44
2022/08/03 03:38:25;;;;;;;;;;;;;;;;;;4970054;28;19914;-44
2022/08/03 03:40:51;;;;;;;;;;;;;;;;;;4969490;28;19918;-45
2022/08/03 03:43:17;;;;;;;;;;;;;;;;;;4969982;28;19950;-44
2022/08/03 03:45:43;;;;;;;;;;;;;;;;;;4969829;28;19929;-43
2022/08/03 03:48:09;;;;;;;;;;;;;;;;;;4969454;28;19963;-44
2022/08/03 03:50:36;;;;;;;;;;;;;;;;;;4969704;28;19957;-43
2022/08/03 03:53:03;;;;;;;;;;;;;;;;;;4969952;28;20130;-46
2022/08/03 03:55:29;;;;;;;;;;;;;;;;;;4969964;28;19938;-43
2022/08/03 03:57:55;;;;;;;;;;;;;;;;;;4969245;28;19914;-44
2022/08/03 04:00:21;;;;;;;;;;;;;;;;;;4969579;28;19972;-44
2022/08/03 04:02:47;;;;;;;;;;;;;;;;;;4969478;28;19916;-45
2022/08/03 04:10:57;;;;;;;;;;;;;;;;;;4969371;28;19925;-43
2022/08/03 04:13:23;;;;;;;;;;;;;;;;;;4969307;28;19937;-43
2022/08/03 04:15:49;;;;;;;;;;;;;;;;;;4969126;28;19910;-43
2022/08/03 04:18:15;;;;;;;;;;;;;;;;;;4969038;28;19921;-43
2022/08/03 04:20:41;;;;;;;;;;;;;;;;;;4968999;28;20470;-43
2022/08/03 04:23:08;;;;;;;;;;;;;;;;;;4968927;28;19914;-43
2022/08/03 04:25:35;;;;;;;;;;;;;;;;;;4967921;28;19929;-44
2022/08/03 04:28:01;;;;;;;;;;;;;;;;;;4969574;28;19914;-43
2022/08/03 04:30:27;;;;;;;;;;;;;;;;;;4968866;28;20008;-43
2022/08/03 04:32:53;;;;;;;;;;;;;;;;;;4968391;28;19918;-46
2022/08/03 04:35:19;;;;;;;;;;;;;;;;;;4968895;28;19917;-43
2022/08/03 04:37:48;;;;;;;;;;;;;;;;;;4968646;28;20102;-45
2022/08/03 04:40:13;;;;;;;;;;;;;;;;;;4967892;28;19968;-44
2022/08/03 04:42:39;;;;;;;;;;;;;;;;;;4968740;28;19945;-42
2022/08/03 04:45:05;;;;;;;;;;;;;;;;;;4968471;28;20378;-43
2022/08/03 04:47:31;;;;;;;;;;;;;;;;;;4969195;28;19914;-44
2022/08/03 04:49:57;;;;;;;;;;;;;;;;;;4968678;28;20298;-45
2022/08/03 04:52:24;;;;;;;;;;;;;;;;;;4968688;28;19949;-43
2022/08/03 04:54:51;;;;;;;;;;;;;;;;;;4965037;28;19917;-44
2022/08/03 04:57:17;;;;;;;;;;;;;;;;;;4968832;28;19914;-43
2022/08/03 04:59:44;;;;;;;;;;;;;;;;;;4967995;28;20293;-42
2022/08/03 05:02:10;;;;;;;;;;;;;;;;;;4968448;28;20338;-44
2022/08/03 05:04:39;;;;;;;;;;;;;;;;;;4968016;28;19922;-44
2022/08/03 05:07:05;;;;;;;;;;;;;;;;;;4968071;28;19984;-42
2022/08/03 05:09:32;;;;;;;;;;;;;;;;;;4968569;28;19914;-43
2022/08/03 05:11:59;;;;;;;;;;;;;;;;;;4968586;28;20013;-45
2022/08/03 05:14:26;;;;;;;;;;;;;;;;;;4968430;28;19914;-43
2022/08/03 05:16:52;;;;;;;;;;;;;;;;;;4967640;28;20350;-44
2022/08/03 05:19:19;;;;;;;;;;;;;;;;;;4968355;28;19914;-44
2022/08/03 05:21:45;;;;;;;;;;;;;;;;;;4968605;28;19906;-43
2022/08/03 05:24:10;;;;;;;;;;;;;;;;;;4968801;28;20461;-44
2022/08/03 05:26:37;;;;;;;;;;;;;;;;;;4968249;28;19913;-43
2022/08/03 05:29:03;;;;;;;;;;;;;;;;;;4967829;28;19914;-44
2022/08/03 05:31:29;;;;;;;;;;;;;;;;;;4967917;28;19913;-42
2022/08/03 05:33:55;;;;;;;;;;;;;;;;;;4967950;28;19910;-43
2022/08/03 05:36:22;;;;;;;;;;;;;;;;;;4967508;28;19918;-42
2022/08/03 05:38:48;;;;;;;;;;;;;;;;;;4966871;28;19933;-42
2022/08/03 05:41:14;;;;;;;;;;;;;;;;;;4966547;28;19937;-42
2022/08/03 05:43:40;;;;;;;;;;;;;;;;;;4966916;28;19925;-42
2022/08/03 05:46:06;;;;;;;;;;;;;;;;;;4968762;28;19918;-42
2022/08/03 05:48:32;;;;;;;;;;;;;;;;;;4968829;28;19922;-42
2022/08/03 05:50:58;;;;;;;;;;;;;;;;;;4967028;28;19918;-42
2022/08/03 05:53:25;;;;;;;;;;;;;;;;;;4966824;28;19925;-42
2022/08/03 05:55:51;;;;;;;;;;;;;;;;;;4968646;28;19910;-42
2022/08/03 05:58:17;;;;;;;;;;;;;;;;;;4968972;28;19944;-43
2022/08/03 06:00:43;;;;;;;;;;;;;;;;;;4968759;28;20434;-42
2022/08/03 06:03:09;;;;;;;;;;;;;;;;;;4968199;28;19918;-41
2022/08/03 06:05:35;;;;;;;;;;;;;;;;;;4966692;28;19918;-42
2022/08/03 06:08:01;;;;;;;;;;;;;;;;;;4966779;28;20402;-42
2022/08/03 06:10:27;;;;;;;;;;;;;;;;;;4954157;28;19914;-41
2022/08/03 06:12:53;;;;;;;;;;;;;;;;;;4949280;29;19910;-42
2022/08/03 06:15:19;;;;;;;;;;;;;;;;;;4958982;28;19922;-42
2022/08/03 06:17:45;;;;;;;;;;;;;;;;;;4966946;28;19918;-41
2022/08/03 06:20:11;;;;;;;;;;;;;;;;;;4968329;28;19915;-42
2022/08/03 06:22:37;;;;;;;;;;;;;;;;;;4972997;28;19914;-43
2022/08/03 06:25:03;;;;;;;;;;;;;;;;;;4967912;28;19961;-42
2022/08/03 06:27:29;;;;;;;;;;;;;;;;;;4969039;28;19918;-43
2022/08/03 06:29:55;;;;;;;;;;;;;;;;;;4969635;28;19946;-42
2022/08/03 06:32:21;;;;;;;;;;;;;;;;;;4967041;28;19922;-43
2022/08/03 06:34:47;;;;;;;;;;;;;;;;;;4949200;28;19946;-43
2022/08/03 06:37:14;;;;;;;;;;;;;;;;;;4949492;29;19918;-42
2022/08/03 06:39:40;;;;;;;;;;;;;;;;;;4949736;29;19945;-42
2022/08/03 06:42:06;;;;;;;;;;;;;;;;;;4948941;29;19957;-42
2022/08/03 06:44:32;;;;;;;;;;;;;;;;;;4949483;29;19965;-42
2022/08/03 06:46:58;;;;;;;;;;;;;;;;;;4948953;28;19910;-43
2022/08/03 06:49:24;;;;;;;;;;;;;;;;;;4958590;28;19926;-42
2022/08/03 06:51:52;;;;;;;;;;;;;;;;;;4974182;28;20009;-44
2022/08/03 06:54:18;;;;;;;;;;;;;;;;;;4965919;28;20414;-42
2022/08/03 06:56:44;;;;;;;;;;;;;;;;;;4965432;28;19925;-42
2022/08/03 06:59:10;;;;;;;;;;;;;;;;;;4965295;28;19919;-42
2022/08/03 07:01:36;;;;;;;;;;;;;;;;;;4961776;28;19937;-45
2022/08/03 07:04:02;;;;;;;;;;;;;;;;;;4963662;28;19933;-42
2022/08/03 07:06:28;;;;;;;;;;;;;;;;;;4968245;28;19916;-42
2022/08/03 07:08:55;;;;;;;;;;;;;;;;;;4967179;28;19914;-45
2022/08/03 07:11:21;;;;;;;;;;;;;;;;;;4967247;28;20420;-44
2022/08/03 07:13:47;;;;;;;;;;;;;;;;;;4967800;28;19910;-52
2022/08/03 07:16:13;;;;;;;;;;;;;;;;;;4967567;28;19921;-51
2022/08/03 07:18:39;;;;;;;;;;;;;;;;;;4967993;28;19922;-48
2022/08/03 07:21:06;;;;;;;;;;;;;;;;;;4962662;28;19957;-51
2022/08/03 07:23:33;;;;;;;;;;;;;;;;;;4965928;28;20322;-50
2022/08/03 07:25:59;;;;;;;;;;;;;;;;;;4967295;28;19914;-49
2022/08/03 07:28:25;;;;;;;;;;;;;;;;;;4968052;28;19921;-52
2022/08/03 07:30:51;;;;;;;;;;;;;;;;;;4967605;28;19914;-49
2022/08/03 07:33:17;;;;;;;;;;;;;;;;;;4967768;28;19910;-49
2022/08/03 07:35:43;;;;;;;;;;;;;;;;;;4967695;28;20032;-52
2022/08/03 07:38:09;;;;;;;;;;;;;;;;;;4963518;28;19918;-49
2022/08/03 07:40:34;;;;;;;;;;;;;;;;;;4950847;28;19925;-49
2022/08/03 07:43:02;;;;;;;;;;;;;;;;;;4948409;29;19957;-49
2022/08/03 07:45:28;;;;;;;;;;;;;;;;;;4954066;28;19918;-49
2022/08/03 07:47:54;;;;;;;;;;;;;;;;;;4949394;28;20387;-49
2022/08/03 07:50:19;;;;;;;;;;;;;;;;;;4948433;28;20009;-49
2022/08/03 07:52:49;;;;;;;;;;;;;;;;;;4948018;29;19911;-52
2022/08/03 07:55:15;;;;;;;;;;;;;;;;;;4948737;28;19914;-51
2022/08/03 07:57:41;;;;;;;;;;;;;;;;;;4951503;28;19922;-52
2022/08/03 08:00:08;;;;;;;;;;;;;;;;;;4947931;29;19921;-49
2022/08/03 08:02:33;;;;;;;;;;;;;;;;;;4947855;29;19910;-49
2022/08/03 08:04:59;;;;;;;;;;;;;;;;;;4947499;28;20431;-52
2022/08/03 08:07:25;;;;;;;;;;;;;;;;;;4962585;28;20294;-53
2022/08/03 08:09:51;;;;;;;;;;;;;;;;;;4956810;28;19914;-52
2022/08/03 08:12:17;;;;;;;;;;;;;;;;;;4958906;28;20005;-53
2022/08/03 08:14:46;;;;;;;;;;;;;;;;;;4965012;28;19977;-49
2022/08/03 08:17:12;;;;;;;;;;;;;;;;;;4968255;28;20033;-53
2022/08/03 08:19:38;;;;;;;;;;;;;;;;;;4968302;28;20004;-51
2022/08/03 08:22:05;;;;;;;;;;;;;;;;;;4966344;28;20609;-50
2022/08/03 08:24:32;;;;;;;;;;;;;;;;;;4967745;28;20375;-50
2022/08/03 08:26:58;;;;;;;;;;;;;;;;;;4969362;28;19910;-52
2022/08/03 08:29:24;;;;;;;;;;;;;;;;;;4969594;28;20001;-53
2022/08/03 08:31:51;;;;;;;;;;;;;;;;;;4968994;28;20083;-48
2022/08/03 08:34:17;;;;;;;;;;;;;;;;;;4969267;28;20378;-52
2022/08/03 08:36:43;;;;;;;;;;;;;;;;;;4968114;28;19925;-49
2022/08/03 08:39:09;;;;;;;;;;;;;;;;;;4967780;28;19921;-50
2022/08/03 08:41:36;;;;;;;;;;;;;;;;;;4969101;28;20394;-52
2022/08/03 08:44:03;;;;;;;;;;;;;;;;;;4968516;28;20314;-49
2022/08/03 08:46:29;;;;;;;;;;;;;;;;;;4967054;28;19921;-50
2022/08/03 08:48:54;;;;;;;;;;;;;;;;;;4968424;28;19917;-50
2022/08/03 08:51:20;;;;;;;;;;;;;;;;;;4966977;28;20402;-50
2022/08/03 08:53:46;;;;;;;;;;;;;;;;;;4967706;28;20053;-47
2022/08/03 08:56:14;;;;;;;;;;;;;;;;;;4966805;28;19929;-51
2022/08/03 08:58:40;;;;;;;;;;;;;;;;;;4965951;28;19918;-51
2022/08/03 09:01:06;;;;;;;;;;;;;;;;;;4965264;28;20280;-52
2022/08/03 09:03:32;;;;;;;;;;;;;;;;;;4967703;28;19925;-50
2022/08/03 09:05:57;;;;;;;;;;;;;;;;;;4968745;28;19922;-51
2022/08/03 09:08:24;;;;;;;;;;;;;;;;;;4969749;28;19914;-49
2022/08/03 09:10:50;;;;;;;;;;;;;;;;;;4966397;28;20670;-50
2022/08/03 09:13:15;;;;;;;;;;;;;;;;;;4966229;28;20030;-52
2022/08/03 09:15:41;;;;;;;;;;;;;;;;;;4967486;28;19915;-49
2022/08/03 09:18:08;;;;;;;;;;;;;;;;;;4965295;28;20024;-49
2022/08/03 09:20:35;;;;;;;;;;;;;;;;;;4968923;28;19914;-49
2022/08/03 09:23:01;;;;;;;;;;;;;;;;;;4965932;28;19926;-50
2022/08/03 09:25:28;;;;;;;;;;;;;;;;;;4964641;28;19914;-48
2022/08/03 09:27:54;;;;;;;;;;;;;;;;;;4965660;28;19965;-48
2022/08/03 09:30:20;;;;;;;;;;;;;;;;;;4965047;28;20016;-49
2022/08/03 09:32:46;;;;;;;;;;;;;;;;;;4964337;28;19917;-52
2022/08/03 09:35:12;;;;;;;;;;;;;;;;;;4963274;28;20428;-50
2022/08/03 09:37:38;;;;;;;;;;;;;;;;;;4965849;28;19918;-49
2022/08/03 09:40:05;;;;;;;;;;;;;;;;;;4965244;28;19922;-50
2022/08/03 09:42:33;;;;;;;;;;;;;;;;;;4968978;28;19925;-52
2022/08/03 09:44:59;;;;;;;;;;;;;;;;;;4969540;28;19939;-51
2022/08/03 09:47:26;;;;;;;;;;;;;;;;;;4966422;28;19914;-52
2022/08/03 09:49:52;;;;;;;;;;;;;;;;;;4962731;28;19921;-50
2022/08/03 09:52:18;;;;;;;;;;;;;;;;;;4956984;28;20001;-52
2022/08/03 09:54:43;;;;;;;;;;;;;;;;;;4967937;28;19965;-49
2022/08/03 09:57:09;;;;;;;;;;;;;;;;;;4965894;28;20354;-49
2022/08/03 09:59:36;;;;;;;;;;;;;;;;;;4967508;28;20410;-50
2022/08/03 10:02:03;;;;;;;;;;;;;;;;;;4966480;28;19929;-50
2022/08/03 10:04:29;;;;;;;;;;;;;;;;;;4966348;28;20310;-50
2022/08/03 10:06:55;;;;;;;;;;;;;;;;;;4963939;28;19918;-51
2022/08/03 10:09:21;;;;;;;;;;;;;;;;;;4968244;28;19924;-51
2022/08/03 10:11:48;;;;;;;;;;;;;;;;;;4967438;28;19914;-49
2022/08/03 10:14:17;;;;;;;;;;;;;;;;;;4964979;28;19918;-50
2022/08/03 10:16:43;;;;;;;;;;;;;;;;;;4966200;28;19919;-50
2022/08/03 10:19:09;;;;;;;;;;;;;;;;;;4967659;28;19914;-52
2022/08/03 10:21:35;;;;;;;;;;;;;;;;;;4966946;28;19918;-51
2022/08/03 10:24:01;;;;;;;;;;;;;;;;;;4954299;28;19984;-52
2022/08/03 10:26:27;;;;;;;;;;;;;;;;;;4961478;28;19911;-49
2022/08/03 10:28:53;;;;;;;;;;;;;;;;;;4967323;28;19925;-52
2022/08/03 10:31:19;;;;;;;;;;;;;;;;;;4968486;28;19916;-49
2022/08/03 10:33:45;;;;;;;;;;;;;;;;;;4968670;28;19910;-52
2022/08/03 10:36:11;;;;;;;;;;;;;;;;;;4968212;28;19914;-49
2022/08/03 10:38:37;;;;;;;;;;;;;;;;;;4965889;28;19973;-52
2022/08/03 10:41:03;;;;;;;;;;;;;;;;;;4968168;28;19918;-52
2022/08/03 10:43:29;;;;;;;;;;;;;;;;;;4966524;28;19914;-49
2022/08/03 10:45:55;;;;;;;;;;;;;;;;;;4967821;28;19942;-50
2022/08/03 10:48:21;;;;;;;;;;;;;;;;;;4968106;28;20513;-52
2022/08/03 10:50:47;;;;;;;;;;;;;;;;;;4968232;28;19910;-51
2022/08/03 10:53:13;;;;;;;;;;;;;;;;;;4965093;28;19918;-52
2022/08/03 10:58:24;;;;;;;;;;;;;;;;;;4967877;28;19925;-48
2022/08/03 11:00:50;;;;;;;;;;;;;;;;;;4964698;28;19918;-50
2022/08/03 11:03:17;;;;;;;;;;;;;;;;;;4948697;29;19922;-50
2022/08/03 11:05:43;;;;;;;;;;;;;;;;;;4948719;29;19923;-53
2022/08/03 11:08:09;;;;;;;;;;;;;;;;;;4948638;29;20956;-51
2022/08/03 11:10:35;;;;;;;;;;;;;;;;;;4954601;28;19921;-49
2022/08/03 11:13:01;;;;;;;;;;;;;;;;;;4965689;28;19945;-51
2022/08/03 11:15:27;;;;;;;;;;;;;;;;;;4966338;28;19924;-52
2022/08/03 11:17:52;;;;;;;;;;;;;;;;;;4966289;28;19929;-49
2022/08/03 11:20:18;;;;;;;;;;;;;;;;;;4967046;28;20008;-53
2022/08/03 11:22:44;;;;;;;;;;;;;;;;;;4967070;28;19918;-52
2022/08/03 11:25:12;;;;;;;;;;;;;;;;;;4965550;28;19921;-51
2022/08/03 11:27:38;;;;;;;;;;;;;;;;;;4965753;28;20375;-51
2022/08/03 11:30:04;;;;;;;;;;;;;;;;;;4967087;28;20000;-53
2022/08/03 11:32:30;;;;;;;;;;;;;;;;;;4965738;28;19937;-49
2022/08/03 11:34:56;;;;;;;;;;;;;;;;;;4966306;28;19914;-50
2022/08/03 11:37:22;;;;;;;;;;;;;;;;;;4966989;28;20020;-53
2022/08/03 11:39:48;;;;;;;;;;;;;;;;;;4967283;28;19914;-51
2022/08/03 11:42:13;;;;;;;;;;;;;;;;;;4966286;28;19914;-51
2022/08/03 11:44:39;;;;;;;;;;;;;;;;;;4966122;28;19941;-50
2022/08/03 11:47:05;;;;;;;;;;;;;;;;;;4966293;28;19957;-52
2022/08/03 11:49:31;;;;;;;;;;;;;;;;;;4969338;28;19965;-53
2022/08/03 11:51:57;;;;;;;;;;;;;;;;;;4971706;28;19935;-52
2022/08/03 11:54:24;;;;;;;;;;;;;;;;;;4968934;28;19918;-50
2022/08/03 11:56:50;;;;;;;;;;;;;;;;;;4971206;28;19944;-49
2022/08/03 11:59:17;;;;;;;;;;;;;;;;;;4971341;28;19910;-50
2022/08/03 12:01:44;;;;;;;;;;;;;;;;;;4971185;28;19917;-51
2022/08/03 12:04:10;;;;;;;;;;;;;;;;;;4970041;28;19930;-53
2022/08/03 12:06:55;;;;;;;;;;;;;;;;;;4971138;28;20109;-50
2022/08/03 12:09:21;;;;;;;;;;;;;;;;;;4970279;28;20438;-51
2022/08/03 12:11:47;;;;;;;;;;;;;;;;;;4971352;28;20263;-51
2022/08/03 12:14:13;;;;;;;;;;;;;;;;;;4968391;28;19923;-52
2022/08/03 12:16:39;;;;;;;;;;;;;;;;;;4963988;28;19961;-53
2022/08/03 12:19:05;;;;;;;;;;;;;;;;;;4966690;28;19925;-50
2022/08/03 12:21:31;;;;;;;;;;;;;;;;;;4965115;28;19918;-53
2022/08/03 12:23:58;;;;;;;;;;;;;;;;;;4969039;28;20425;-53
2022/08/03 12:26:24;;;;;;;;;;;;;;;;;;4967187;28;20008;-52
2022/08/03 12:28:50;;;;;;;;;;;;;;;;;;4969012;28;20004;-52
2022/08/03 12:31:16;;;;;;;;;;;;;;;;;;4967667;28;19922;-52
2022/08/03 12:33:43;;;;;;;;;;;;;;;;;;4969217;28;19924;-53
2022/08/03 12:36:09;;;;;;;;;;;;;;;;;;4968999;28;19918;-49
2022/08/03 12:38:35;;;;;;;;;;;;;;;;;;4969258;28;19968;-54
2022/08/03 12:41:01;;;;;;;;;;;;;;;;;;4967943;28;20564;-51
2022/08/03 12:43:27;;;;;;;;;;;;;;;;;;4969679;28;20005;-55
2022/08/03 12:45:53;;;;;;;;;;;;;;;;;;4967253;28;19933;-50
2022/08/03 12:48:18;;;;;;;;;;;;;;;;;;4969088;28;19914;-53
2022/08/03 12:50:44;;;;;;;;;;;;;;;;;;4969006;28;19910;-53
2022/08/03 12:53:10;;;;;;;;;;;;;;;;;;4969115;28;20323;-53
2022/08/03 12:55:37;;;;;;;;;;;;;;;;;;4967415;28;20406;-51
2022/08/03 12:58:04;;;;;;;;;;;;;;;;;;4968730;28;19914;-52
2022/08/03 13:00:30;;;;;;;;;;;;;;;;;;4967906;28;20298;-53
2022/08/03 13:02:56;;;;;;;;;;;;;;;;;;4969020;28;20021;-51
2022/08/03 13:05:22;;;;;;;;;;;;;;;;;;4966966;28;20319;-53
2022/08/03 13:07:48;;;;;;;;;;;;;;;;;;4967613;28;19918;-54
2022/08/03 13:10:14;;;;;;;;;;;;;;;;;;4968721;28;19921;-54
2022/08/03 13:12:40;;;;;;;;;;;;;;;;;;4965797;28;19914;-54
2022/08/03 13:15:07;;;;;;;;;;;;;;;;;;4968183;28;19910;-53
2022/08/03 13:17:33;;;;;;;;;;;;;;;;;;4967544;28;20442;-54
2022/08/03 13:19:59;;;;;;;;;;;;;;;;;;4968788;28;19925;-54
2022/08/03 13:22:27;;;;;;;;;;;;;;;;;;4967580;28;19953;-53
2022/08/03 13:24:56;;;;;;;;;;;;;;;;;;4968066;28;19914;-52
2022/08/03 13:27:22;;;;;;;;;;;;;;;;;;4968158;28;19922;-54
2022/08/03 13:29:48;;;;;;;;;;;;;;;;;;4966745;28;20327;-54
2022/08/03 13:32:15;;;;;;;;;;;;;;;;;;4968229;28;19926;-54
2022/08/03 13:34:42;;;;;;;;;;;;;;;;;;4967873;28;19910;-50
2022/08/03 13:37:08;;;;;;;;;;;;;;;;;;4967853;28;19914;-52
2022/08/03 13:39:35;;;;;;;;;;;;;;;;;;4967375;28;20044;-52
2022/08/03 13:42:01;;;;;;;;;;;;;;;;;;4967659;28;19910;-53
2022/08/03 13:44:27;;;;;;;;;;;;;;;;;;4968423;28;20457;-49
2022/08/03 13:46:53;;;;;;;;;;;;;;;;;;4967591;28;19924;-52
2022/08/03 13:49:20;;;;;;;;;;;;;;;;;;4966955;28;19933;-51
2022/08/03 13:51:46;;;;;;;;;;;;;;;;;;4966120;28;19914;-51
2022/08/03 13:54:13;;;;;;;;;;;;;;;;;;4967930;28;19921;-52
2022/08/03 13:56:39;;;;;;;;;;;;;;;;;;4967532;28;19910;-53
2022/08/03 13:59:05;;;;;;;;;;;;;;;;;;4967301;28;19914;-52
2022/08/03 14:01:31;;;;;;;;;;;;;;;;;;4966854;28;19924;-53
2022/08/03 14:03:57;;;;;;;;;;;;;;;;;;4967321;28;20462;-52
2022/08/03 14:06:23;;;;;;;;;;;;;;;;;;4967752;28;19925;-55
2022/08/03 14:08:50;;;;;;;;;;;;;;;;;;4967405;28;19910;-54
2022/08/03 14:11:16;;;;;;;;;;;;;;;;;;4966392;28;19921;-53
2022/08/03 14:13:42;;;;;;;;;;;;;;;;;;4967592;28;19918;-54
2022/08/03 14:16:08;;;;;;;;;;;;;;;;;;4967144;28;20410;-53
2022/08/03 14:18:34;;;;;;;;;;;;;;;;;;4967305;28;19965;-54
2022/08/03 14:21:00;;;;;;;;;;;;;;;;;;4967530;28;19910;-53
2022/08/03 14:23:25;;;;;;;;;;;;;;;;;;4965691;28;20414;-54
2022/08/03 14:25:51;;;;;;;;;;;;;;;;;;4967030;28;19996;-50
2022/08/03 14:28:18;;;;;;;;;;;;;;;;;;4967246;28;19914;-54
2022/08/03 14:30:46;;;;;;;;;;;;;;;;;;4967274;28;20230;-52
2022/08/03 14:33:12;;;;;;;;;;;;;;;;;;4966682;28;20307;-53
2022/08/03 14:35:38;;;;;;;;;;;;;;;;;;4966049;28;19918;-52
2022/08/03 14:38:04;;;;;;;;;;;;;;;;;;4966728;28;19918;-50
2022/08/03 14:40:30;;;;;;;;;;;;;;;;;;4967272;28;19957;-51
2022/08/03 14:42:57;;;;;;;;;;;;;;;;;;4967488;28;19911;-50
2022/08/03 14:45:23;;;;;;;;;;;;;;;;;;4965010;28;20446;-55
2022/08/03 14:47:50;;;;;;;;;;;;;;;;;;4966755;28;19950;-52
2022/08/03 14:50:17;;;;;;;;;;;;;;;;;;4966801;28;20001;-53
2022/08/03 14:52:44;;;;;;;;;;;;;;;;;;4966607;28;20481;-52
2022/08/03 14:55:10;;;;;;;;;;;;;;;;;;4965111;28;19921;-54
2022/08/03 14:57:36;;;;;;;;;;;;;;;;;;4966475;28;19914;-54
2022/08/03 15:00:02;;;;;;;;;;;;;;;;;;4966564;28;19917;-53
2022/08/03 15:02:29;;;;;;;;;;;;;;;;;;4966482;28;19918;-51
2022/08/03 15:04:55;;;;;;;;;;;;;;;;;;4965467;28;19968;-54
2022/08/03 15:07:21;;;;;;;;;;;;;;;;;;4965855;28;20004;-53
2022/08/03 15:09:46;;;;;;;;;;;;;;;;;;4966482;28;20001;-51
2022/08/03 15:12:12;;;;;;;;;;;;;;;;;;4966310;28;19918;-51
2022/08/03 15:14:38;;;;;;;;;;;;;;;;;;4966315;28;19972;-52
2022/08/03 15:17:04;;;;;;;;;;;;;;;;;;4963180;28;19918;-54
2022/08/03 15:19:31;;;;;;;;;;;;;;;;;;4963699;28;19953;-54
2022/08/03 15:21:57;;;;;;;;;;;;;;;;;;4967108;28;19982;-53
2022/08/03 15:24:23;;;;;;;;;;;;;;;;;;4971492;28;19995;-55
2022/08/03 15:26:49;;;;;;;;;;;;;;;;;;4971515;28;19926;-55
2022/08/03 15:29:15;;;;;;;;;;;;;;;;;;4969016;28;19924;-54
2022/08/03 15:31:41;;;;;;;;;;;;;;;;;;4972681;28;19914;-54
2022/08/03 15:34:08;;;;;;;;;;;;;;;;;;4969870;28;19918;-52
2022/08/03 15:36:34;;;;;;;;;;;;;;;;;;4970012;28;19918;-53
2022/08/03 15:38:59;;;;;;;;;;;;;;;;;;4968196;28;20575;-54
2022/08/03 15:41:25;;;;;;;;;;;;;;;;;;4970933;28;19914;-54
2022/08/03 15:43:52;;;;;;;;;;;;;;;;;;4974098;28;19985;-54
2022/08/03 15:46:18;;;;;;;;;;;;;;;;;;4970184;28;19949;-53
2022/08/03 15:48:44;;;;;;;;;;;;;;;;;;4972172;28;19961;-54
2022/08/03 15:51:10;;;;;;;;;;;;;;;;;;4971967;28;20307;-51
2022/08/03 15:53:36;;;;;;;;;;;;;;;;;;4973169;28;19921;-52
2022/08/03 15:56:02;;;;;;;;;;;;;;;;;;4971658;28;19918;-52
2022/08/03 15:58:29;;;;;;;;;;;;;;;;;;4973524;28;20438;-51
2022/08/03 16:00:55;;;;;;;;;;;;;;;;;;4972960;28;19949;-52
2022/08/03 16:03:21;;;;;;;;;;;;;;;;;;4974207;28;19918;-51
2022/08/03 16:05:47;;;;;;;;;;;;;;;;;;4973944;28;19917;-51
2022/08/03 16:08:13;;;;;;;;;;;;;;;;;;4972864;28;19989;-50
2022/08/03 16:10:39;;;;;;;;;;;;;;;;;;4971752;28;19926;-52
2022/08/03 16:13:05;;;;;;;;;;;;;;;;;;4971952;28;19965;-50
2022/08/03 16:15:32;;;;;;;;;;;;;;;;;;4973799;28;19965;-51
2022/08/03 16:17:58;;;;;;;;;;;;;;;;;;4974295;28;19914;-51
2022/08/03 16:20:24;;;;;;;;;;;;;;;;;;4971797;28;19925;-47
2022/08/03 16:22:50;;;;;;;;;;;;;;;;;;4956628;28;20157;-51
2022/08/03 16:25:16;;;;;;;;;;;;;;;;;;4959070;28;19918;-48
2022/08/03 16:27:41;;;;;;;;;;;;;;;;;;4973596;28;19921;-50
2022/08/03 16:30:08;;;;;;;;;;;;;;;;;;4973592;28;19910;-50
2022/08/03 16:32:34;;;;;;;;;;;;;;;;;;4971515;28;19918;-50
2022/08/03 16:35:00;;;;;;;;;;;;;;;;;;4970936;28;20310;-51
2022/08/03 16:37:26;;;;;;;;;;;;;;;;;;4971027;28;20518;-49
2022/08/03 16:39:52;;;;;;;;;;;;;;;;;;4970191;28;19968;-54
2022/08/03 16:42:17;;;;;;;;;;;;;;;;;;4969318;28;19918;-54
2022/08/03 16:44:43;;;;;;;;;;;;;;;;;;4970098;28;19964;-54
2022/08/03 16:47:09;;;;;;;;;;;;;;;;;;4969575;28;20016;-53
2022/08/03 16:49:35;;;;;;;;;;;;;;;;;;4970379;28;19915;-57
2022/08/03 16:52:01;;;;;;;;;;;;;;;;;;4968421;28;19914;-57